createdAt,value
2023-02-20T00:01:58.330Z,2.80
2023-02-20T00:04:26.810Z,2.17
2023-02-20T00:06:55.210Z,2.23
2023-02-20T00:09:23.895Z,2.00
2023-02-20T00:11:53.629Z,2.20
2023-02-20T00:14:23.559Z,1.87
2023-02-20T00:16:52.451Z,2.30
2023-02-20T00:19:20.941Z,2.13
2023-02-20T00:21:50.379Z,1.77
2023-02-20T00:24:19.778Z,2.33
2023-02-20T00:26:49.166Z,2.13
2023-02-20T00:29:21.228Z,2.70
2023-02-20T00:31:55.952Z,2.27
2023-02-20T00:34:27.302Z,2.17
2023-02-20T00:36:55.979Z,2.30
2023-02-20T00:39:24.816Z,2.33
2023-02-20T00:41:53.486Z,2.13
2023-02-20T00:44:23.497Z,1.90
2023-02-20T00:46:51.977Z,2.13
2023-02-20T00:49:20.550Z,2.13
2023-02-20T00:51:49.148Z,1.87
2023-02-20T00:54:17.850Z,2.33
2023-02-20T00:56:46.323Z,2.23
2023-02-20T00:59:14.896Z,2.47
2023-02-20T01:01:44.821Z,2.27
2023-02-20T01:04:13.520Z,2.63
2023-02-20T01:06:42.319Z,2.37
2023-02-20T01:09:10.846Z,2.47
2023-02-20T01:11:39.574Z,2.10
2023-02-20T01:14:07.970Z,2.40
2023-02-20T01:16:36.505Z,2.70
2023-02-20T01:19:06.568Z,2.77
2023-02-20T01:21:34.955Z,2.50
2023-02-20T01:24:03.731Z,2.57
2023-02-20T01:26:32.414Z,3.00
2023-02-20T01:29:00.971Z,2.70
2023-02-20T01:31:29.563Z,2.30
2023-02-20T01:33:58.189Z,3.10
2023-02-20T01:36:28.139Z,2.83
2023-02-20T01:38:56.660Z,2.77
2023-02-20T01:41:26.754Z,2.77
2023-02-20T01:43:55.214Z,2.90
2023-02-20T01:46:48.145Z,2.73
2023-02-20T01:49:24.298Z,2.43
2023-02-20T01:52:01.089Z,2.00
2023-02-20T01:54:30.954Z,1.93
2023-02-20T01:57:03.884Z,2.80
2023-02-20T01:59:37.008Z,2.50
2023-02-20T02:02:06.793Z,2.50
2023-02-20T02:04:38.162Z,2.63
2023-02-20T02:07:09.219Z,2.20
2023-02-20T02:09:45.396Z,2.27
2023-02-20T02:12:15.205Z,2.60
2023-02-20T02:14:43.621Z,1.80
2023-02-20T02:17:46.988Z,2.33
2023-02-20T02:21:10.790Z,2.30
2023-02-20T02:24:51.900Z,2.00
2023-02-20T02:28:24.290Z,1.87
2023-02-20T02:31:38.894Z,2.30
2023-02-20T02:34:39.091Z,1.93
2023-02-20T02:37:19.649Z,2.07
2023-02-20T02:39:56.227Z,1.80
2023-02-20T02:42:38.007Z,1.57
2023-02-20T02:45:18.799Z,1.80
2023-02-20T02:47:52.321Z,1.67
2023-02-20T02:50:28.046Z,1.57
2023-02-20T02:52:59.745Z,1.70
2023-02-20T02:55:31.396Z,1.97
2023-02-20T02:58:00.155Z,1.90
2023-02-20T03:00:35.040Z,2.27
2023-02-20T03:03:17.173Z,1.80
2023-02-20T03:05:51.102Z,2.40
2023-02-20T03:08:32.199Z,1.60
2023-02-20T03:11:08.210Z,2.07
2023-02-20T03:14:00.839Z,2.67
2023-02-20T03:16:34.013Z,1.87
2023-02-20T03:19:09.179Z,2.23
2023-02-20T03:21:39.249Z,2.30
2023-02-20T03:24:13.759Z,2.67
2023-02-20T03:26:45.203Z,2.70
2023-02-20T03:29:19.688Z,2.50
2023-02-20T03:32:12.475Z,3.03
2023-02-20T03:34:59.686Z,3.03
2023-02-20T03:37:49.893Z,2.40
2023-02-20T03:40:38.285Z,2.60
2023-02-20T03:43:24.300Z,2.70
2023-02-20T03:45:58.358Z,2.20
2023-02-20T03:48:35.981Z,2.40
2023-02-20T03:51:04.928Z,3.20
2023-02-20T03:53:34.081Z,2.47
2023-02-20T03:56:09.828Z,2.43
2023-02-20T03:58:43.826Z,2.53
2023-02-20T04:01:15.601Z,2.57
2023-02-20T04:03:46.101Z,2.87
2023-02-20T04:06:17.065Z,2.77
2023-02-20T04:08:53.446Z,2.50
2023-02-20T04:11:26.525Z,2.30
2023-02-20T04:13:57.344Z,2.20
2023-02-20T04:16:26.612Z,2.33
2023-02-20T04:18:55.228Z,2.00
2023-02-20T04:21:33.912Z,2.40
2023-02-20T04:24:07.319Z,1.90
2023-02-20T04:26:38.123Z,2.27
2023-02-20T04:29:07.895Z,2.20
2023-02-20T04:31:36.452Z,3.00
2023-02-20T04:34:04.783Z,2.30
2023-02-20T04:36:33.331Z,2.33
2023-02-20T04:39:01.662Z,1.90
2023-02-20T04:41:30.557Z,2.13
2023-02-20T04:44:14.186Z,2.23
2023-02-20T04:46:42.605Z,1.80
2023-02-20T04:49:11.014Z,2.00
2023-02-20T04:51:39.505Z,1.70
2023-02-20T04:54:08.138Z,2.20
2023-02-20T04:56:36.684Z,2.10
2023-02-20T04:59:06.460Z,2.30
2023-02-20T05:01:34.985Z,1.70
2023-02-20T05:04:03.412Z,2.30
2023-02-20T05:06:31.761Z,1.67
2023-02-20T05:09:00.152Z,2.10
2023-02-20T05:11:28.532Z,1.80
2023-02-20T05:13:57.967Z,2.10
2023-02-20T05:16:27.699Z,1.83
2023-02-20T05:18:56.044Z,2.10
2023-02-20T05:21:41.744Z,1.97
2023-02-20T05:24:10.156Z,2.43
2023-02-20T05:26:38.770Z,2.17
2023-02-20T05:29:09.933Z,2.30
2023-02-20T05:31:39.715Z,2.03
2023-02-20T05:34:08.292Z,2.07
2023-02-20T05:36:37.009Z,2.27
2023-02-20T05:39:05.903Z,3.50
2023-02-20T05:41:34.651Z,2.90
2023-02-20T05:44:03.030Z,1.90
2023-02-20T05:46:31.427Z,2.37
2023-02-20T05:49:01.179Z,2.30
2023-02-20T05:51:33.917Z,1.80
2023-02-20T05:54:02.750Z,1.80
2023-02-20T05:56:33.029Z,2.40
2023-02-20T05:59:02.144Z,2.13
2023-02-20T06:01:32.750Z,2.20
2023-02-20T06:04:02.820Z,2.20
2023-02-20T06:06:35.414Z,2.30
2023-02-20T06:09:05.100Z,2.27
2023-02-20T06:11:33.404Z,2.53
2023-02-20T06:14:02.081Z,2.10
2023-02-20T06:16:32.214Z,1.80
2023-02-20T06:19:02.577Z,2.30
2023-02-20T06:21:31.109Z,1.77
2023-02-20T06:23:59.477Z,1.90
2023-02-20T06:26:27.913Z,1.93
2023-02-20T06:28:57.795Z,2.20
2023-02-20T06:31:29.120Z,1.97
2023-02-20T06:33:57.620Z,2.00
2023-02-20T06:36:31.200Z,2.63
2023-02-20T06:39:00.136Z,2.20
2023-02-20T06:41:28.805Z,2.40
2023-02-20T06:43:57.503Z,2.03
2023-02-20T06:46:26.521Z,2.30
2023-02-20T06:48:57.199Z,2.70
2023-02-20T06:51:31.170Z,2.27
2023-02-20T06:54:00.196Z,2.00
2023-02-20T06:56:32.457Z,2.13
2023-02-20T06:59:01.902Z,2.50
2023-02-20T07:01:32.348Z,2.10
2023-02-20T07:04:03.055Z,2.93
2023-02-20T07:06:32.784Z,2.70
2023-02-20T07:09:01.182Z,2.60
2023-02-20T07:11:29.633Z,2.50
2023-02-20T07:13:58.751Z,2.83
2023-02-20T07:16:27.215Z,3.07
2023-02-20T07:18:55.667Z,2.17
2023-02-20T07:21:24.399Z,2.50
2023-02-20T07:23:54.508Z,2.97
2023-02-20T07:26:25.780Z,2.60
2023-02-20T07:28:54.868Z,2.40
2023-02-20T07:31:23.487Z,3.07
2023-02-20T07:33:52.003Z,2.60
2023-02-20T07:36:20.523Z,2.40
2023-02-20T07:38:57.340Z,2.30
2023-02-20T07:41:26.578Z,2.70
2023-02-20T07:43:54.955Z,2.50
2023-02-20T07:46:23.869Z,2.63
2023-02-20T07:48:53.353Z,2.57
2023-02-20T07:51:21.957Z,2.20
2023-02-20T07:53:51.381Z,2.47
2023-02-20T07:56:23.064Z,2.83
2023-02-20T07:58:51.707Z,2.73
2023-02-20T08:01:21.125Z,3.00
2023-02-20T08:03:49.686Z,3.07
2023-02-20T08:06:19.383Z,3.07
2023-02-20T08:08:51.261Z,2.63
2023-02-20T08:11:22.474Z,2.73
2023-02-20T08:13:51.699Z,2.80
2023-02-20T08:16:20.257Z,2.80
2023-02-20T08:18:49.037Z,3.03
2023-02-20T08:21:17.546Z,2.47
2023-02-20T08:23:45.945Z,2.60
2023-02-20T08:26:15.404Z,3.10
2023-02-20T08:28:45.487Z,2.97
2023-02-20T08:31:26.253Z,2.63
2023-02-20T08:33:59.497Z,2.60
2023-02-20T08:36:28.191Z,2.87
2023-02-20T08:38:57.388Z,2.80
2023-02-20T08:41:25.726Z,2.53
2023-02-20T08:43:55.440Z,2.93
2023-02-20T08:46:23.881Z,3.40
2023-02-20T08:48:52.254Z,3.00
2023-02-20T08:51:22.494Z,2.97
2023-02-20T08:53:50.903Z,2.77
2023-02-20T08:56:20.546Z,2.30
2023-02-20T08:58:49.005Z,2.50
2023-02-20T09:01:18.794Z,3.20
2023-02-20T09:03:49.236Z,3.13
2023-02-20T09:06:17.971Z,3.10
2023-02-20T09:08:46.398Z,3.20
2023-02-20T09:11:15.725Z,2.77
2023-02-20T09:13:44.932Z,3.53
2023-02-20T09:16:13.868Z,3.70
2023-02-20T09:18:45.220Z,3.17
2023-02-20T09:21:15.821Z,3.87
2023-02-20T09:23:44.260Z,3.77
2023-02-20T09:26:12.988Z,3.60
2023-02-20T09:28:41.773Z,3.30
2023-02-20T09:31:10.207Z,3.80
2023-02-20T09:33:38.544Z,3.67
2023-02-20T09:36:09.578Z,4.40
2023-02-20T09:38:38.174Z,3.83
2023-02-20T09:41:11.858Z,4.00
2023-02-20T09:43:51.925Z,4.13
2023-02-20T09:46:23.411Z,4.40
2023-02-20T09:49:10.940Z,4.57
2023-02-20T09:51:45.710Z,4.93
2023-02-20T09:54:18.797Z,5.73
2023-02-20T09:56:53.143Z,5.33
2023-02-20T09:59:25.740Z,4.73
2023-02-20T10:01:57.565Z,5.10
2023-02-20T10:04:31.289Z,4.50
2023-02-20T10:07:14.231Z,5.53
2023-02-20T10:09:43.966Z,6.67
2023-02-20T10:12:25.948Z,4.83
2023-02-20T10:15:21.064Z,5.07
2023-02-20T10:18:00.459Z,6.83
2023-02-20T10:20:39.319Z,4.60
2023-02-20T10:23:21.376Z,5.50
2023-02-20T10:25:54.809Z,5.57
2023-02-20T10:28:23.639Z,5.33
2023-02-20T10:31:01.336Z,4.63
2023-02-20T10:33:36.688Z,5.30
2023-02-20T10:36:14.685Z,4.30
2023-02-20T10:38:51.274Z,4.60
2023-02-20T10:41:28.015Z,4.47
2023-02-20T10:44:03.733Z,4.90
2023-02-20T10:46:48.992Z,4.80
2023-02-20T10:49:25.885Z,4.30
2023-02-20T10:52:00.463Z,4.60
2023-02-20T10:54:38.665Z,4.60
2023-02-20T10:57:13.935Z,5.00
2023-02-20T10:59:52.548Z,4.77
2023-02-20T11:02:26.672Z,4.30
2023-02-20T11:05:02.570Z,4.50
2023-02-20T11:07:31.151Z,4.40
2023-02-20T11:10:01.127Z,4.33
2023-02-20T11:12:35.700Z,5.37
2023-02-20T11:15:11.827Z,4.47
2023-02-20T11:17:41.959Z,4.70
2023-02-20T11:20:46.340Z,4.40
2023-02-20T11:23:39.794Z,4.70
2023-02-20T11:26:31.744Z,4.63
2023-02-20T11:29:07.990Z,4.37
2023-02-20T11:31:36.860Z,4.50
2023-02-20T11:34:07.786Z,5.40
2023-02-20T11:36:45.330Z,5.63
2023-02-20T11:39:27.059Z,5.50
2023-02-20T11:42:13.747Z,6.27
2023-02-20T11:44:42.129Z,5.20
2023-02-20T11:47:28.663Z,5.83
2023-02-20T11:50:20.526Z,6.20
2023-02-20T11:53:04.998Z,6.40
2023-02-20T11:55:33.937Z,6.37
2023-02-20T11:58:04.530Z,6.90
2023-02-20T12:00:47.691Z,7.00
2023-02-20T12:03:22.918Z,6.77
2023-02-20T12:05:51.637Z,7.03
2023-02-20T12:08:49.211Z,7.47
2023-02-20T12:11:20.408Z,6.07
2023-02-20T12:13:53.016Z,5.80
2023-02-20T12:16:43.632Z,6.90
2023-02-20T12:19:19.872Z,6.73
2023-02-20T12:22:02.448Z,7.17
2023-02-20T12:24:55.421Z,6.43
2023-02-20T12:28:10.012Z,7.20
2023-02-20T12:31:06.656Z,6.50
2023-02-20T12:33:58.136Z,7.17
2023-02-20T12:36:35.155Z,6.67
2023-02-20T12:39:09.073Z,6.80
2023-02-20T12:42:03.152Z,6.97
2023-02-20T12:44:58.533Z,7.23
2023-02-20T12:47:33.382Z,7.40
2023-02-20T12:50:52.130Z,6.23
2023-02-20T12:53:37.465Z,7.17
2023-02-20T12:56:21.529Z,7.13
2023-02-20T12:58:57.634Z,6.83
2023-02-20T13:01:38.723Z,6.83
2023-02-20T13:04:23.787Z,7.07
2023-02-20T13:07:04.038Z,6.67
2023-02-20T13:09:36.638Z,6.80
2023-02-20T13:12:12.121Z,6.97
2023-02-20T13:15:00.981Z,7.00
2023-02-20T13:17:39.776Z,6.50
2023-02-20T13:20:18.872Z,6.60
2023-02-20T13:23:02.035Z,7.43
2023-02-20T13:25:43.467Z,6.47
2023-02-20T13:28:43.096Z,6.57
2023-02-20T13:31:19.176Z,6.40
2023-02-20T13:33:52.790Z,6.20
2023-02-20T13:36:45.227Z,6.13
2023-02-20T13:39:51.882Z,6.03
2023-02-20T13:42:35.652Z,6.43
2023-02-20T13:45:19.589Z,5.83
2023-02-20T13:47:47.935Z,5.13
2023-02-20T13:50:34.161Z,5.53
2023-02-20T13:53:06.623Z,5.27
2023-02-20T13:55:35.664Z,5.33
2023-02-20T13:58:13.669Z,5.73
2023-02-20T14:00:55.377Z,5.50
2023-02-20T14:03:28.857Z,5.60
2023-02-20T14:06:09.843Z,5.43
2023-02-20T14:08:42.647Z,5.43
2023-02-20T14:11:14.159Z,5.77
2023-02-20T14:13:48.180Z,5.33
2023-02-20T14:16:31.231Z,4.90
2023-02-20T14:19:01.065Z,5.47
2023-02-20T14:21:31.198Z,5.10
2023-02-20T14:24:19.469Z,5.90
2023-02-20T14:26:48.920Z,5.23
2023-02-20T14:29:26.454Z,5.47
2023-02-20T14:31:57.080Z,5.47
2023-02-20T14:34:35.131Z,5.60
2023-02-20T14:37:12.121Z,5.47
2023-02-20T14:39:56.735Z,5.10
2023-02-20T14:42:27.176Z,5.53
2023-02-20T14:45:02.719Z,5.50
2023-02-20T14:47:31.826Z,5.07
2023-02-20T14:50:17.438Z,4.77
2023-02-20T14:52:46.086Z,4.90
2023-02-20T14:55:19.982Z,6.10
2023-02-20T14:57:51.107Z,5.30
2023-02-20T15:00:35.844Z,4.93
2023-02-20T15:03:28.095Z,4.63
2023-02-20T15:06:03.707Z,4.73
2023-02-20T15:08:36.099Z,4.47
2023-02-20T15:11:11.600Z,4.70
2023-02-20T15:13:44.173Z,4.57
2023-02-20T15:16:21.915Z,4.93
2023-02-20T15:18:50.935Z,4.50
2023-02-20T15:21:39.368Z,4.10
2023-02-20T15:24:37.921Z,4.20
2023-02-20T15:27:17.568Z,4.33
2023-02-20T15:29:46.870Z,4.63
2023-02-20T15:32:24.651Z,4.57
2023-02-20T15:34:56.821Z,5.07
2023-02-20T15:37:37.949Z,4.07
2023-02-20T15:40:28.541Z,4.00
2023-02-20T15:43:04.274Z,4.10
2023-02-20T15:45:34.294Z,4.67
2023-02-20T15:48:02.751Z,4.23
2023-02-20T15:50:31.168Z,4.23
2023-02-20T15:52:59.600Z,4.10
2023-02-20T15:55:30.204Z,4.30
2023-02-20T15:58:01.678Z,4.53
2023-02-20T16:00:33.343Z,3.97
2023-02-20T16:03:03.180Z,3.80
2023-02-20T16:05:31.644Z,4.40
2023-02-20T16:08:00.146Z,3.70
2023-02-20T16:10:28.731Z,4.27
2023-02-20T16:13:00.801Z,4.53
2023-02-20T16:15:29.715Z,3.80
2023-02-20T16:17:58.440Z,3.80
2023-02-20T16:20:29.765Z,3.87
2023-02-20T16:22:58.342Z,3.77
2023-02-20T16:25:27.050Z,3.97
2023-02-20T16:27:57.510Z,4.00
2023-02-20T16:30:34.072Z,4.23
2023-02-20T16:33:03.986Z,3.57
2023-02-20T16:35:32.379Z,4.33
2023-02-20T16:38:01.590Z,3.53
2023-02-20T16:40:30.029Z,4.00
2023-02-20T16:42:58.459Z,3.50
2023-02-20T16:45:28.646Z,3.67
2023-02-20T16:47:58.800Z,3.80
2023-02-20T16:50:30.170Z,3.70
2023-02-20T16:53:02.935Z,3.57
2023-02-20T16:55:34.898Z,3.90
2023-02-20T16:58:04.387Z,4.13
2023-02-20T17:00:42.394Z,4.30
2023-02-20T17:03:16.217Z,4.40
2023-02-20T17:05:44.659Z,4.90
2023-02-20T17:08:13.070Z,4.03
2023-02-20T17:10:41.395Z,3.97
2023-02-20T17:13:11.573Z,4.17
2023-02-20T17:15:41.376Z,4.47
2023-02-20T17:18:09.763Z,4.10
2023-02-20T17:20:38.398Z,4.80
2023-02-20T17:23:06.889Z,4.03
2023-02-20T17:25:35.791Z,4.23
2023-02-20T17:28:06.586Z,4.80
2023-02-20T17:30:35.160Z,4.50
2023-02-20T17:33:05.039Z,4.47
2023-02-20T17:35:33.418Z,4.97
2023-02-20T17:38:01.745Z,4.77
2023-02-20T17:40:30.272Z,4.50
2023-02-20T17:42:58.760Z,4.50
2023-02-20T17:45:27.201Z,3.93
2023-02-20T17:47:55.630Z,4.87
2023-02-20T17:50:25.355Z,4.33
2023-02-20T17:52:55.375Z,4.47
2023-02-20T17:55:27.158Z,4.70
2023-02-20T17:57:55.680Z,4.83
2023-02-20T18:00:24.459Z,5.07
2023-02-20T18:02:52.838Z,4.70
2023-02-20T18:05:21.239Z,5.40
2023-02-20T18:07:51.086Z,4.00
2023-02-20T18:10:20.644Z,4.53
2023-02-20T18:13:02.657Z,4.37
2023-02-20T18:15:32.085Z,4.83
2023-02-20T18:18:00.613Z,5.30
2023-02-20T18:20:29.453Z,5.83
2023-02-20T18:23:00.004Z,5.20
2023-02-20T18:25:39.936Z,5.37
2023-02-20T18:28:09.809Z,4.50
2023-02-20T18:30:38.399Z,4.77
2023-02-20T18:33:07.358Z,5.20
2023-02-20T18:35:36.377Z,5.43
2023-02-20T18:38:09.919Z,6.43
2023-02-20T18:40:38.512Z,5.80
2023-02-20T18:43:08.498Z,5.63
2023-02-20T18:45:37.147Z,5.40
2023-02-20T18:48:06.655Z,5.97
2023-02-20T18:50:35.065Z,6.00
2023-02-20T18:53:05.058Z,5.63
2023-02-20T18:55:33.492Z,5.67
2023-02-20T18:58:02.206Z,4.90
2023-02-20T19:00:34.540Z,5.50
2023-02-20T19:03:04.115Z,5.20
2023-02-20T19:05:32.498Z,5.37
2023-02-20T19:08:01.632Z,5.53
2023-02-20T19:10:33.171Z,5.97
2023-02-20T19:13:01.632Z,5.53
2023-02-20T19:15:30.071Z,6.87
2023-02-20T19:17:58.449Z,5.57
2023-02-20T19:20:30.643Z,6.10
2023-02-20T19:23:00.638Z,5.60
2023-02-20T19:25:30.609Z,5.77
2023-02-20T19:27:59.018Z,7.10
2023-02-20T19:30:27.452Z,6.73
2023-02-20T19:32:55.981Z,6.07
2023-02-20T19:35:24.532Z,5.83
2023-02-20T19:37:54.630Z,5.57
2023-02-20T19:40:22.991Z,6.70
2023-02-20T19:42:54.076Z,6.70
2023-02-20T19:45:22.405Z,6.37
2023-02-20T19:47:50.810Z,6.37
2023-02-20T19:50:20.885Z,5.73
2023-02-20T19:52:49.490Z,6.27
2023-02-20T19:55:19.377Z,5.53
2023-02-20T19:57:48.172Z,5.87
2023-02-20T20:00:20.821Z,6.30
2023-02-20T20:02:50.155Z,6.43
2023-02-20T20:05:19.938Z,5.93
2023-02-20T20:07:50.490Z,5.77
2023-02-20T20:10:20.967Z,5.57
2023-02-20T20:12:49.648Z,5.60
2023-02-20T20:15:22.616Z,6.53
2023-02-20T20:17:53.921Z,6.13
2023-02-20T20:20:25.103Z,6.80
2023-02-20T20:22:55.843Z,6.23
2023-02-20T20:25:25.891Z,6.53
2023-02-20T20:27:57.780Z,6.30
2023-02-20T20:30:30.148Z,5.77
2023-02-20T20:33:02.430Z,5.83
2023-02-20T20:35:32.087Z,6.77
2023-02-20T20:38:02.019Z,6.10
2023-02-20T20:40:30.804Z,6.30
2023-02-20T20:42:59.547Z,6.17
2023-02-20T20:45:29.410Z,6.20
2023-02-20T20:47:57.820Z,6.07
2023-02-20T20:50:28.798Z,6.37
2023-02-20T20:53:01.763Z,6.27
2023-02-20T20:55:31.315Z,6.40
2023-02-20T20:57:59.695Z,6.10
2023-02-20T21:00:33.875Z,5.60
2023-02-20T21:03:02.525Z,5.77
2023-02-20T21:05:34.479Z,6.57
2023-02-20T21:08:03.722Z,5.93
2023-02-20T21:10:33.390Z,5.87
2023-02-20T21:13:01.993Z,5.67
2023-02-20T21:15:32.219Z,5.53
2023-02-20T21:18:01.344Z,5.90
2023-02-20T21:20:32.822Z,5.10
2023-02-20T21:23:04.452Z,4.13
2023-02-20T21:25:32.811Z,4.40
2023-02-20T21:28:02.321Z,3.83
2023-02-20T21:30:32.135Z,4.03
2023-02-20T21:33:00.623Z,3.03
2023-02-20T21:35:29.062Z,3.30
2023-02-20T21:37:57.790Z,2.30
2023-02-20T21:40:26.186Z,2.07
2023-02-20T21:43:12.329Z,2.10
2023-02-20T21:45:42.101Z,1.60
2023-02-20T21:48:12.824Z,1.90
2023-02-20T21:50:42.845Z,2.00
2023-02-20T21:53:15.879Z,1.70
2023-02-20T21:55:45.826Z,1.80
2023-02-20T21:58:19.265Z,2.10
2023-02-20T22:00:47.909Z,1.77
2023-02-20T22:03:15.251Z,2.00
2023-02-20T22:05:42.489Z,1.97
2023-02-20T22:08:28.312Z,2.17
2023-02-20T22:11:14.514Z,2.10
2023-02-20T22:14:00.437Z,1.77
2023-02-20T22:16:47.465Z,2.03
2023-02-20T22:19:33.295Z,2.17
2023-02-20T22:22:20.441Z,2.67
2023-02-20T22:25:06.443Z,1.87
2023-02-20T22:27:52.475Z,1.97
2023-02-20T22:30:38.941Z,2.07
2023-02-20T22:33:26.311Z,1.80
2023-02-20T22:36:12.098Z,1.77
2023-02-20T22:38:57.842Z,2.10
2023-02-20T22:41:43.693Z,1.90
2023-02-20T22:44:29.612Z,1.70
2023-02-20T22:47:15.596Z,1.60
2023-02-20T22:50:02.651Z,1.70
2023-02-20T22:52:48.455Z,1.80
2023-02-20T22:55:34.407Z,1.50
2023-02-20T22:58:20.190Z,2.70
2023-02-20T23:01:06.317Z,1.30
2023-02-20T23:03:52.265Z,1.50
2023-02-20T23:06:40.143Z,1.07
2023-02-20T23:09:27.182Z,1.17
2023-02-20T23:12:15.584Z,1.07
2023-02-20T23:15:01.704Z,0.90
2023-02-20T23:17:47.860Z,0.80
2023-02-20T23:20:37.374Z,1.10
2023-02-20T23:23:25.776Z,1.20
2023-02-20T23:26:12.078Z,0.80
2023-02-20T23:28:58.252Z,1.10
2023-02-20T23:31:51.004Z,1.00
2023-02-20T23:34:37.017Z,1.00
2023-02-20T23:37:22.852Z,0.80
2023-02-20T23:40:10.746Z,0.80
2023-02-20T23:42:56.389Z,1.00
2023-02-20T23:45:44.120Z,0.83
2023-02-20T23:48:30.679Z,1.30
2023-02-20T23:51:16.872Z,1.03
2023-02-20T23:54:03.001Z,1.27
2023-02-20T23:56:50.139Z,1.30
2023-02-20T23:59:35.716Z,1.30
